createdAt,value
2022-08-11T00:00:38.142Z,14.90
2022-08-11T00:02:14.998Z,14.90
2022-08-11T00:03:51.728Z,14.80
2022-08-11T00:05:24.929Z,14.70
2022-08-11T00:07:02.285Z,14.60
2022-08-11T00:08:35.922Z,14.50
2022-08-11T00:10:14.427Z,14.40
2022-08-11T00:11:50.207Z,14.40
2022-08-11T00:13:24.584Z,14.30
2022-08-11T00:14:58.747Z,14.30
2022-08-11T00:16:32.831Z,14.20
2022-08-11T00:18:07.060Z,14.20
2022-08-11T00:20:11.644Z,14.10
2022-08-11T00:22:04.072Z,14.10
2022-08-11T00:23:43.712Z,14.00
2022-08-11T00:25:20.327Z,14.00
2022-08-11T00:26:55.757Z,14.00
2022-08-11T00:28:29.925Z,14.00
2022-08-11T00:30:04.472Z,13.90
2022-08-11T00:31:39.123Z,13.90
2022-08-11T00:33:13.078Z,13.90
2022-08-11T00:34:48.071Z,13.90
2022-08-11T00:36:27.249Z,13.90
2022-08-11T00:38:02.172Z,13.90
2022-08-11T00:39:43.606Z,14.00
2022-08-11T00:41:32.405Z,14.10
2022-08-11T00:43:20.291Z,14.00
2022-08-11T00:45:06.681Z,13.90
2022-08-11T00:46:52.275Z,13.90
2022-08-11T00:48:30.398Z,13.80
2022-08-11T00:50:14.649Z,13.90
2022-08-11T00:52:09.090Z,13.90
2022-08-11T00:53:54.608Z,13.80
2022-08-11T00:55:47.318Z,13.80
2022-08-11T00:58:11.654Z,13.70
2022-08-11T01:00:06.802Z,13.60
2022-08-11T01:01:58.050Z,13.60
2022-08-11T01:03:54.372Z,13.60
2022-08-11T01:06:03.307Z,13.70
2022-08-11T01:08:20.722Z,13.70
2022-08-11T01:10:12.352Z,13.70
2022-08-11T01:12:16.011Z,13.70
2022-08-11T01:14:34.077Z,13.60
2022-08-11T01:16:37.694Z,13.50
2022-08-11T01:18:45.890Z,13.50
2022-08-11T01:20:49.128Z,13.30
2022-08-11T01:22:58.862Z,13.30
2022-08-11T01:25:08.238Z,13.20
2022-08-11T01:27:22.888Z,13.10
2022-08-11T01:29:29.625Z,13.10
2022-08-11T01:31:30.160Z,13.10
2022-08-11T01:33:40.306Z,13.00
2022-08-11T01:35:34.894Z,13.00
2022-08-11T01:37:36.544Z,12.90
2022-08-11T01:39:40.149Z,13.10
2022-08-11T01:41:52.813Z,13.20
2022-08-11T01:44:22.492Z,13.10
2022-08-11T01:46:00.628Z,13.20
2022-08-11T01:47:54.708Z,13.10
2022-08-11T01:50:07.142Z,13.10
2022-08-11T01:51:44.705Z,13.10
2022-08-11T01:53:25.264Z,13.10
2022-08-11T01:55:10.026Z,13.20
2022-08-11T01:56:56.997Z,13.20
2022-08-11T01:58:39.685Z,13.10
2022-08-11T02:00:21.704Z,13.20
2022-08-11T02:02:42.951Z,13.20
2022-08-11T02:04:25.272Z,13.20
2022-08-11T02:06:25.734Z,13.30
2022-08-11T02:08:06.738Z,13.30
2022-08-11T02:09:55.333Z,13.30
2022-08-11T02:11:31.016Z,13.30
2022-08-11T02:13:15.408Z,13.20
2022-08-11T02:15:04.620Z,13.20
2022-08-11T02:16:53.234Z,13.10
2022-08-11T02:18:49.941Z,13.10
2022-08-11T02:20:44.537Z,13.00
2022-08-11T02:22:43.573Z,12.80
2022-08-11T02:24:26.077Z,12.80
2022-08-11T02:26:06.521Z,12.70
2022-08-11T02:27:44.487Z,12.60
2022-08-11T02:29:24.789Z,12.60
2022-08-11T02:32:10.920Z,12.60
2022-08-11T02:33:24.750Z,12.70
2022-08-11T02:35:18.947Z,12.60
2022-08-11T02:37:00.095Z,12.60
2022-08-11T02:38:43.540Z,12.60
2022-08-11T02:40:31.230Z,12.50
2022-08-11T02:42:32.695Z,12.50
2022-08-11T02:44:24.236Z,12.40
2022-08-11T02:46:07.732Z,12.50
2022-08-11T02:48:24.746Z,12.40
2022-08-11T02:50:07.645Z,12.40
2022-08-11T02:51:53.824Z,12.50
2022-08-11T02:53:37.830Z,12.70
2022-08-11T02:55:50.863Z,12.70
2022-08-11T02:57:25.884Z,12.70
2022-08-11T02:59:22.552Z,12.70
2022-08-11T03:01:04.841Z,12.70
2022-08-11T03:02:51.319Z,12.70
2022-08-11T03:04:37.851Z,12.60
2022-08-11T03:06:18.752Z,12.60
2022-08-11T03:08:14.008Z,12.60
2022-08-11T03:09:55.026Z,12.60
2022-08-11T03:12:04.308Z,12.70
2022-08-11T03:14:02.336Z,12.70
2022-08-11T03:16:05.980Z,12.60
2022-08-11T03:17:47.799Z,12.60
2022-08-11T03:19:26.318Z,12.60
2022-08-11T03:21:08.835Z,12.60
2022-08-11T03:22:50.814Z,12.60
2022-08-11T03:24:29.294Z,12.60
2022-08-11T03:26:07.340Z,12.50
2022-08-11T03:27:53.557Z,12.50
2022-08-11T03:29:34.083Z,12.40
2022-08-11T03:31:19.214Z,12.40
2022-08-11T03:33:36.217Z,12.40
2022-08-11T03:35:11.578Z,12.30
2022-08-11T03:37:37.020Z,12.20
2022-08-11T03:39:19.550Z,12.20
2022-08-11T03:42:02.633Z,12.10
2022-08-11T03:43:36.244Z,12.20
2022-08-11T03:45:26.653Z,12.20
2022-08-11T03:47:22.285Z,12.10
2022-08-11T03:49:12.941Z,12.10
2022-08-11T03:51:05.847Z,12.10
2022-08-11T03:52:52.602Z,12.00
2022-08-11T03:54:35.467Z,12.00
2022-08-11T03:56:37.422Z,12.00
2022-08-11T03:58:50.670Z,12.10
2022-08-11T04:01:09.027Z,12.10
2022-08-11T04:03:23.668Z,12.10
2022-08-11T04:05:42.290Z,12.10
2022-08-11T04:07:47.815Z,12.10
2022-08-11T04:09:56.848Z,12.10
2022-08-11T04:12:01.503Z,12.20
2022-08-11T04:14:22.126Z,12.20
2022-08-11T04:16:42.828Z,12.30
2022-08-11T04:18:48.537Z,12.40
2022-08-11T04:20:44.583Z,12.60
2022-08-11T04:22:37.073Z,12.80
2022-08-11T04:24:50.641Z,12.90
2022-08-11T04:26:49.286Z,13.10
2022-08-11T04:28:50.990Z,13.20
2022-08-11T04:30:35.190Z,13.40
2022-08-11T04:32:37.549Z,13.50
2022-08-11T04:34:38.244Z,13.60
2022-08-11T04:36:50.313Z,13.70
2022-08-11T04:38:59.637Z,13.80
2022-08-11T04:40:53.988Z,13.90
2022-08-11T04:43:21.037Z,14.00
2022-08-11T04:45:45.179Z,14.10
2022-08-11T04:48:03.759Z,14.20
2022-08-11T04:50:13.652Z,14.30
2022-08-11T04:52:21.074Z,14.40
2022-08-11T04:54:25.180Z,14.50
2022-08-11T04:56:29.601Z,14.60
2022-08-11T04:58:35.877Z,14.70
2022-08-11T05:00:29.150Z,14.80
2022-08-11T05:02:27.737Z,14.90
2022-08-11T05:04:43.094Z,15.00
2022-08-11T05:06:55.464Z,15.10
2022-08-11T05:09:04.898Z,15.30
2022-08-11T05:11:01.137Z,15.40
2022-08-11T05:12:42.146Z,15.50
2022-08-11T05:14:51.860Z,15.60
2022-08-11T05:16:48.309Z,15.80
2022-08-11T05:18:42.570Z,15.90
2022-08-11T05:20:34.709Z,16.00
2022-08-11T05:22:29.246Z,16.10
2022-08-11T05:24:32.443Z,16.30
2022-08-11T05:26:47.145Z,16.40
2022-08-11T05:28:50.049Z,16.70
2022-08-11T05:30:46.931Z,16.80
2022-08-11T05:32:37.790Z,17.00
2022-08-11T05:34:31.476Z,17.20
2022-08-11T05:36:16.632Z,17.40
2022-08-11T05:38:07.285Z,17.50
2022-08-11T05:40:03.830Z,17.60
2022-08-11T05:41:54.867Z,17.70
2022-08-11T05:44:20.512Z,17.90
2022-08-11T05:46:02.772Z,18.00
2022-08-11T05:47:55.697Z,18.30
2022-08-11T05:49:49.712Z,18.50
2022-08-11T05:51:55.036Z,19.70
2022-08-11T05:53:47.241Z,21.90
2022-08-11T05:55:54.607Z,23.60
2022-08-11T05:57:48.699Z,24.90
2022-08-11T05:59:28.675Z,26.20
2022-08-11T06:01:02.405Z,27.30
2022-08-11T06:02:40.952Z,28.00
2022-08-11T06:04:19.104Z,28.20
2022-08-11T06:05:52.772Z,28.40
2022-08-11T06:07:49.274Z,28.50
2022-08-11T06:09:26.273Z,29.00
2022-08-11T06:11:04.585Z,29.50
2022-08-11T06:12:40.733Z,29.60
2022-08-11T06:14:15.953Z,29.30
2022-08-11T06:15:51.965Z,29.10
2022-08-11T06:17:27.381Z,29.90
2022-08-11T06:19:13.124Z,29.80
2022-08-11T06:20:48.628Z,30.10
2022-08-11T06:22:23.561Z,30.50
2022-08-11T06:24:01.302Z,31.10
2022-08-11T06:25:36.126Z,31.00
2022-08-11T06:27:13.065Z,31.30
2022-08-11T06:28:48.246Z,31.20
2022-08-11T06:30:36.292Z,31.40
2022-08-11T06:32:14.598Z,31.20
2022-08-11T06:34:01.170Z,31.00
2022-08-11T06:35:40.514Z,31.30
2022-08-11T06:37:21.831Z,31.00
2022-08-11T06:39:10.802Z,30.70
2022-08-11T06:41:06.408Z,30.80
2022-08-11T06:42:54.533Z,31.10
2022-08-11T06:44:32.398Z,31.60
2022-08-11T06:46:10.959Z,32.10
2022-08-11T06:47:48.085Z,32.00
2022-08-11T06:49:41.331Z,32.30
2022-08-11T06:51:15.224Z,32.50
2022-08-11T06:52:48.352Z,32.60
2022-08-11T06:54:24.273Z,32.90
2022-08-11T06:56:17.337Z,32.60
2022-08-11T06:58:08.645Z,32.70
2022-08-11T07:00:00.952Z,32.50
2022-08-11T07:01:46.717Z,32.50
2022-08-11T07:03:23.594Z,32.80
2022-08-11T07:05:01.605Z,33.00
2022-08-11T07:07:12.715Z,32.70
2022-08-11T07:09:36.959Z,32.40
2022-08-11T07:11:55.580Z,32.60
2022-08-11T07:13:48.143Z,32.90
2022-08-11T07:16:11.152Z,33.60
2022-08-11T07:17:36.084Z,33.60
2022-08-11T07:19:27.352Z,33.60
2022-08-11T07:22:01.598Z,33.50
2022-08-11T07:23:43.324Z,33.60
2022-08-11T07:25:35.478Z,33.80
2022-08-11T07:27:44.197Z,34.40
2022-08-11T07:29:17.699Z,34.00
2022-08-11T07:30:53.986Z,33.10
2022-08-11T07:32:30.921Z,34.60
2022-08-11T07:34:17.588Z,35.00
2022-08-11T07:35:55.543Z,35.20
2022-08-11T07:37:33.285Z,34.90
2022-08-11T07:39:11.922Z,35.10
2022-08-11T07:40:46.909Z,34.30
2022-08-11T07:42:24.869Z,34.80
2022-08-11T07:44:08.791Z,35.00
2022-08-11T07:46:01.477Z,35.00
2022-08-11T07:47:55.006Z,36.30
2022-08-11T07:49:47.296Z,35.30
2022-08-11T07:51:39.037Z,35.30
2022-08-11T07:53:14.390Z,35.50
2022-08-11T07:54:47.666Z,35.20
2022-08-11T07:56:29.603Z,35.60
2022-08-11T07:58:45.462Z,35.60
2022-08-11T08:00:43.546Z,35.70
2022-08-11T08:02:37.955Z,36.20
2022-08-11T08:04:31.418Z,36.50
2022-08-11T08:06:35.523Z,36.50
2022-08-11T08:08:28.372Z,35.10
2022-08-11T08:10:19.904Z,34.80
2022-08-11T08:12:10.978Z,34.60
2022-08-11T08:14:03.573Z,34.90
2022-08-11T08:15:54.931Z,34.80
2022-08-11T08:17:46.117Z,34.90
2022-08-11T08:19:39.579Z,34.40
2022-08-11T08:21:13.123Z,33.70
2022-08-11T08:22:48.706Z,33.30
2022-08-11T08:24:23.117Z,33.50
2022-08-11T08:25:57.377Z,33.60
2022-08-11T08:27:31.066Z,32.50
2022-08-11T08:29:25.811Z,32.40
2022-08-11T08:30:59.491Z,31.50
2022-08-11T08:32:33.115Z,31.90
2022-08-11T08:34:06.388Z,31.40
2022-08-11T08:35:54.678Z,31.60
2022-08-11T08:37:46.355Z,32.20
2022-08-11T08:39:21.829Z,32.40
2022-08-11T08:40:56.737Z,32.90
2022-08-11T08:42:33.229Z,33.20
2022-08-11T08:46:10.112Z,34.40
2022-08-11T08:47:52.461Z,35.10
2022-08-11T08:49:32.741Z,35.20
2022-08-11T08:51:33.617Z,34.80
2022-08-11T08:53:29.572Z,35.00
2022-08-11T08:55:06.626Z,34.00
2022-08-11T08:56:41.975Z,32.80
2022-08-11T08:58:16.799Z,31.80
2022-08-11T08:59:52.488Z,30.10
2022-08-11T09:01:31.192Z,29.30
2022-08-11T09:03:17.496Z,29.20
2022-08-11T09:04:59.249Z,28.50
2022-08-11T09:06:33.635Z,28.30
2022-08-11T09:08:07.848Z,28.10
2022-08-11T09:09:43.961Z,27.80
2022-08-11T09:11:35.149Z,28.60
2022-08-11T09:13:09.327Z,30.00
2022-08-11T09:15:04.429Z,30.90
2022-08-11T09:16:40.355Z,31.40
2022-08-11T09:18:13.761Z,31.00
2022-08-11T09:19:52.224Z,31.00
2022-08-11T09:21:45.396Z,30.40
2022-08-11T09:25:52.088Z,31.80
2022-08-11T09:27:26.141Z,32.40
2022-08-11T09:29:00.690Z,32.40
2022-08-11T09:30:34.020Z,32.50
2022-08-11T09:32:09.120Z,32.90
2022-08-11T09:33:44.159Z,33.10
2022-08-11T09:35:19.332Z,33.30
2022-08-11T09:37:29.038Z,33.10
2022-08-11T09:39:27.663Z,33.00
2022-08-11T09:41:02.840Z,32.60
2022-08-11T09:42:54.644Z,33.00
2022-08-11T09:44:46.383Z,33.20
2022-08-11T09:46:27.817Z,33.00
2022-08-11T09:48:07.363Z,32.40
2022-08-11T09:49:41.124Z,33.20
2022-08-11T09:51:15.518Z,33.70
2022-08-11T09:53:16.812Z,34.10
2022-08-11T09:54:48.323Z,33.60
2022-08-11T09:56:42.801Z,33.10
2022-08-11T09:58:41.449Z,32.30
2022-08-11T10:00:15.146Z,32.00
2022-08-11T10:01:51.658Z,32.00
2022-08-11T10:03:27.903Z,31.70
2022-08-11T10:05:16.414Z,31.10
2022-08-11T10:07:06.952Z,30.40
2022-08-11T10:08:43.764Z,29.70
2022-08-11T10:10:18.308Z,29.90
2022-08-11T10:11:58.245Z,30.40
2022-08-11T10:14:30.858Z,30.90
2022-08-11T10:15:35.063Z,31.90
2022-08-11T10:17:09.580Z,32.50
2022-08-11T10:18:52.525Z,32.90
2022-08-11T10:20:26.515Z,33.20
2022-08-11T10:22:17.593Z,33.20
2022-08-11T10:24:10.885Z,32.80
2022-08-11T10:26:01.760Z,31.90
2022-08-11T10:28:16.748Z,32.10
2022-08-11T10:29:49.979Z,32.20
2022-08-11T10:31:49.821Z,32.70
2022-08-11T10:33:58.972Z,33.30
2022-08-11T10:35:34.377Z,33.40
2022-08-11T10:37:15.111Z,33.60
2022-08-11T10:38:52.300Z,33.50
2022-08-11T10:40:26.512Z,33.20
2022-08-11T10:42:35.387Z,33.50
2022-08-11T10:44:15.921Z,33.20
2022-08-11T10:46:06.902Z,33.40
2022-08-11T10:47:44.386Z,32.60
2022-08-11T10:49:23.927Z,32.40
2022-08-11T10:51:13.318Z,32.40
2022-08-11T10:53:07.560Z,32.20
2022-08-11T10:55:00.249Z,32.50
2022-08-11T10:56:55.125Z,33.00
2022-08-11T10:58:48.402Z,31.30
2022-08-11T11:00:21.701Z,32.30
2022-08-11T11:01:55.419Z,32.40
2022-08-11T11:03:29.960Z,33.30
2022-08-11T11:05:09.528Z,33.40
2022-08-11T11:06:51.561Z,33.50
2022-08-11T11:10:26.048Z,32.30
2022-08-11T11:12:22.258Z,32.40
2022-08-11T11:14:13.339Z,32.20
2022-08-11T11:16:06.287Z,32.00
2022-08-11T11:17:57.164Z,31.80
2022-08-11T11:19:31.254Z,32.40
2022-08-11T11:21:08.846Z,30.70
2022-08-11T11:22:48.049Z,30.60
2022-08-11T11:24:37.405Z,31.90
2022-08-11T11:26:42.165Z,32.70
2022-08-11T11:28:29.427Z,32.40
2022-08-11T11:30:08.363Z,31.90
2022-08-11T11:31:54.988Z,33.10
2022-08-11T11:34:06.489Z,34.00
2022-08-11T11:35:44.281Z,34.30
2022-08-11T11:37:18.318Z,33.90
2022-08-11T11:38:56.473Z,33.50
2022-08-11T11:40:31.875Z,33.50
2022-08-11T11:42:10.322Z,33.30
2022-08-11T11:43:43.829Z,33.50
2022-08-11T11:45:23.975Z,34.10
2022-08-11T11:46:59.125Z,34.70
2022-08-11T11:48:33.378Z,34.00
2022-08-11T11:50:08.985Z,32.80
2022-08-11T11:51:42.710Z,31.10
2022-08-11T11:53:19.713Z,30.80
2022-08-11T11:54:56.933Z,31.30
2022-08-11T11:56:30.768Z,32.40
2022-08-11T11:58:25.734Z,31.90
2022-08-11T12:00:16.636Z,32.90
2022-08-11T12:01:50.521Z,33.30
2022-08-11T12:03:26.751Z,32.80
2022-08-11T12:05:01.711Z,32.90
2022-08-11T12:06:35.260Z,31.50
2022-08-11T12:08:16.203Z,32.00
2022-08-11T12:09:49.905Z,31.20
2022-08-11T12:11:44.124Z,32.20
2022-08-11T12:13:36.132Z,32.80
2022-08-11T12:15:10.433Z,33.60
2022-08-11T12:16:46.248Z,33.30
2022-08-11T12:18:19.549Z,33.10
2022-08-11T12:19:53.674Z,33.30
2022-08-11T12:21:31.211Z,33.30
2022-08-11T12:23:22.486Z,33.50
2022-08-11T12:25:13.539Z,32.90
2022-08-11T12:27:16.277Z,32.60
2022-08-11T12:28:51.610Z,32.70
2022-08-11T12:30:25.182Z,32.60
2022-08-11T12:32:00.435Z,32.40
2022-08-11T12:33:37.439Z,32.50
2022-08-11T12:35:16.212Z,32.60
2022-08-11T12:36:56.139Z,32.80
2022-08-11T12:38:30.190Z,33.20
2022-08-11T12:40:43.182Z,33.30
2022-08-11T12:42:45.077Z,33.50
2022-08-11T12:44:48.130Z,33.70
2022-08-11T12:46:23.466Z,33.10
2022-08-11T12:48:59.227Z,33.30
2022-08-11T12:50:33.104Z,33.40
2022-08-11T12:52:14.976Z,34.00
2022-08-11T12:53:56.835Z,34.10
2022-08-11T12:56:03.743Z,33.50
2022-08-11T12:58:00.326Z,33.00
2022-08-11T12:59:51.637Z,32.90
2022-08-11T13:01:43.347Z,32.50
2022-08-11T13:03:36.813Z,32.40
2022-08-11T13:05:14.644Z,32.40
2022-08-11T13:06:48.288Z,32.10
2022-08-11T13:08:23.184Z,31.50
2022-08-11T13:09:57.531Z,31.40
2022-08-11T13:11:55.740Z,31.40
2022-08-11T13:13:55.458Z,31.60
2022-08-11T13:15:26.572Z,32.10
2022-08-11T13:17:18.317Z,32.70
2022-08-11T13:18:53.520Z,33.30
2022-08-11T13:20:28.051Z,33.50
2022-08-11T13:22:02.402Z,33.50
2022-08-11T13:23:36.855Z,33.10
2022-08-11T13:25:15.194Z,32.70
2022-08-11T13:26:50.595Z,33.00
2022-08-11T13:28:24.840Z,32.10
2022-08-11T13:30:13.878Z,32.30
2022-08-11T13:31:47.691Z,32.80
2022-08-11T13:33:21.283Z,33.20
2022-08-11T13:34:54.695Z,33.40
2022-08-11T13:36:28.898Z,33.20
2022-08-11T13:38:18.431Z,31.80
2022-08-11T13:39:53.736Z,31.70
2022-08-11T13:41:41.093Z,31.40
2022-08-11T13:43:15.389Z,31.70
2022-08-11T13:44:49.444Z,32.20
2022-08-11T13:46:24.899Z,32.30
2022-08-11T13:48:02.728Z,32.20
2022-08-11T13:49:39.743Z,31.70
2022-08-11T13:51:34.582Z,31.60
2022-08-11T13:53:08.592Z,31.60
2022-08-11T13:54:43.326Z,31.30
2022-08-11T13:56:15.857Z,30.90
2022-08-11T13:58:09.096Z,31.60
2022-08-11T13:59:52.372Z,30.90
2022-08-11T14:02:22.551Z,30.60
2022-08-11T14:03:27.917Z,31.30
2022-08-11T14:05:26.821Z,31.40
2022-08-11T14:07:01.160Z,31.50
2022-08-11T14:08:41.789Z,31.20
2022-08-11T14:10:19.729Z,31.00
2022-08-11T14:12:22.611Z,31.10
2022-08-11T14:13:58.592Z,31.20
2022-08-11T14:15:34.922Z,32.00
2022-08-11T14:17:10.578Z,32.20
2022-08-11T14:18:46.976Z,32.40
2022-08-11T14:20:38.583Z,32.00
2022-08-11T14:22:16.665Z,31.60
2022-08-11T14:23:54.973Z,31.30
2022-08-11T14:26:01.227Z,31.10
2022-08-11T14:28:30.185Z,30.70
2022-08-11T14:29:21.485Z,30.70
2022-08-11T14:31:01.175Z,30.60
2022-08-11T14:32:52.860Z,30.60
2022-08-11T14:34:30.420Z,29.90
2022-08-11T14:36:06.206Z,30.00
2022-08-11T14:37:41.090Z,30.20
2022-08-11T14:39:17.159Z,30.40
2022-08-11T14:41:08.417Z,30.50
2022-08-11T14:43:07.399Z,30.60
2022-08-11T14:45:02.672Z,30.60
2022-08-11T14:46:54.025Z,30.60
2022-08-11T14:48:28.813Z,30.80
2022-08-11T14:50:11.205Z,30.50
2022-08-11T14:51:47.196Z,30.10
2022-08-11T14:53:23.628Z,29.70
2022-08-11T14:55:14.859Z,29.50
2022-08-11T14:56:47.119Z,29.50
2022-08-11T14:58:23.337Z,29.40
2022-08-11T14:59:59.274Z,29.20
2022-08-11T15:01:55.491Z,29.30
2022-08-11T15:03:33.487Z,29.50
2022-08-11T15:05:07.072Z,29.40
2022-08-11T15:06:40.807Z,29.40
2022-08-11T15:08:15.617Z,29.50
2022-08-11T15:11:59.255Z,29.30
2022-08-11T15:13:33.233Z,29.20
2022-08-11T15:15:25.758Z,29.10
2022-08-11T15:17:10.017Z,29.10
2022-08-11T15:18:44.589Z,28.90
2022-08-11T15:20:38.707Z,28.60
2022-08-11T15:22:29.630Z,28.70
2022-08-11T15:24:20.725Z,28.80
2022-08-11T15:25:59.364Z,28.70
2022-08-11T15:27:52.876Z,28.70
2022-08-11T15:29:51.228Z,28.50
2022-08-11T15:31:49.297Z,28.40
2022-08-11T15:33:42.148Z,28.40
2022-08-11T15:35:39.131Z,28.30
2022-08-11T15:37:30.960Z,28.20
2022-08-11T15:39:10.099Z,28.10
2022-08-11T15:41:15.362Z,28.10
2022-08-11T15:43:12.890Z,28.10
2022-08-11T15:45:24.446Z,28.00
2022-08-11T15:47:01.576Z,28.00
2022-08-11T15:48:44.077Z,27.90
2022-08-11T15:50:21.847Z,27.90
2022-08-11T15:52:02.305Z,27.90
2022-08-11T15:53:42.293Z,27.90
2022-08-11T15:55:16.775Z,27.80
2022-08-11T15:56:52.852Z,27.90
2022-08-11T15:58:47.630Z,27.90
2022-08-11T16:01:04.310Z,27.90
2022-08-11T16:03:00.706Z,27.80
2022-08-11T16:04:36.198Z,27.90
2022-08-11T16:06:11.914Z,27.80
2022-08-11T16:07:49.182Z,27.70
2022-08-11T16:09:31.675Z,27.70
2022-08-11T16:11:22.483Z,27.50
2022-08-11T16:13:16.965Z,27.50
2022-08-11T16:15:11.886Z,27.60
2022-08-11T16:16:46.952Z,27.60
2022-08-11T16:18:22.055Z,27.50
2022-08-11T16:19:57.912Z,27.40
2022-08-11T16:21:36.695Z,27.50
2022-08-11T16:23:11.403Z,27.50
2022-08-11T16:27:04.892Z,27.40
2022-08-11T16:27:10.334Z,27.30
2022-08-11T16:28:41.821Z,27.30
2022-08-11T16:30:15.869Z,27.30
2022-08-11T16:32:09.491Z,27.20
2022-08-11T16:33:49.422Z,27.30
2022-08-11T16:35:44.080Z,27.40
2022-08-11T16:37:37.302Z,27.30
2022-08-11T16:39:13.580Z,27.20
2022-08-11T16:40:50.180Z,27.20
2022-08-11T16:43:06.318Z,27.20
2022-08-11T16:44:53.181Z,27.10
2022-08-11T16:46:45.212Z,27.00
2022-08-11T16:48:35.574Z,27.00
2022-08-11T16:50:11.648Z,27.00
2022-08-11T16:51:45.075Z,27.00
2022-08-11T16:53:19.765Z,27.00
2022-08-11T16:54:53.870Z,27.00
2022-08-11T16:56:31.227Z,27.00
2022-08-11T16:58:23.249Z,27.00
2022-08-11T16:59:58.674Z,26.90
2022-08-11T17:01:34.757Z,26.80
2022-08-11T17:03:26.954Z,26.80
2022-08-11T17:05:19.316Z,26.80
2022-08-11T17:07:40.556Z,26.80
2022-08-11T17:09:25.789Z,26.80
2022-08-11T17:11:18.920Z,26.80
2022-08-11T17:13:11.863Z,26.70
2022-08-11T17:14:50.087Z,26.70
2022-08-11T17:16:26.500Z,26.60
2022-08-11T17:18:01.678Z,26.60
2022-08-11T17:20:39.860Z,26.50
2022-08-11T17:21:34.974Z,26.60
2022-08-11T17:23:26.782Z,26.60
2022-08-11T17:25:01.275Z,26.50
2022-08-11T17:26:54.245Z,26.50
2022-08-11T17:28:27.795Z,26.50
2022-08-11T17:30:04.387Z,26.40
2022-08-11T17:31:55.054Z,26.40
2022-08-11T17:33:48.007Z,26.40
2022-08-11T17:35:32.672Z,26.30
2022-08-11T17:37:06.194Z,26.30
2022-08-11T17:38:40.499Z,26.20
2022-08-11T17:40:19.038Z,26.20
2022-08-11T17:42:11.340Z,26.10
2022-08-11T17:44:03.698Z,26.10
2022-08-11T17:45:56.329Z,26.10
2022-08-11T17:47:48.545Z,26.00
2022-08-11T17:49:22.342Z,26.00
2022-08-11T17:50:59.133Z,25.90
2022-08-11T17:52:49.818Z,25.90
2022-08-11T17:54:41.898Z,25.80
2022-08-11T17:56:36.577Z,25.80
2022-08-11T17:58:27.339Z,25.70
2022-08-11T18:00:01.971Z,25.60
2022-08-11T18:01:46.889Z,25.60
2022-08-11T18:03:32.936Z,25.50
2022-08-11T18:05:12.852Z,25.50
2022-08-11T18:06:48.134Z,25.50
2022-08-11T18:08:40.060Z,25.40
2022-08-11T18:10:31.235Z,25.40
2022-08-11T18:12:26.003Z,25.20
2022-08-11T18:14:19.728Z,25.10
2022-08-11T18:16:10.496Z,25.00
2022-08-11T18:18:01.285Z,25.00
2022-08-11T18:19:52.549Z,25.00
2022-08-11T18:21:46.595Z,24.80
2022-08-11T18:23:57.616Z,24.50
2022-08-11T18:25:52.412Z,24.20
2022-08-11T18:27:48.981Z,23.90
2022-08-11T18:29:41.738Z,23.50
2022-08-11T18:31:35.366Z,23.30
2022-08-11T18:35:39.909Z,22.70
2022-08-11T18:37:34.231Z,22.40
2022-08-11T18:39:29.461Z,22.10
2022-08-11T18:41:21.961Z,21.90
2022-08-11T18:43:20.343Z,21.70
2022-08-11T18:45:13.402Z,21.60
2022-08-11T18:47:08.650Z,21.30
2022-08-11T18:49:10.635Z,21.10
2022-08-11T18:51:31.405Z,21.00
2022-08-11T18:53:17.148Z,20.80
2022-08-11T18:55:10.460Z,20.70
2022-08-11T18:57:06.628Z,20.50
2022-08-11T18:59:01.786Z,20.50
2022-08-11T19:00:58.209Z,20.30
2022-08-11T19:02:50.755Z,20.20
2022-08-11T19:04:42.144Z,20.10
2022-08-11T19:06:40.259Z,20.00
2022-08-11T19:08:32.073Z,20.00
2022-08-11T19:10:24.281Z,19.90
2022-08-11T19:12:17.245Z,19.80
2022-08-11T19:14:10.841Z,19.70
2022-08-11T19:16:02.179Z,19.70
2022-08-11T19:18:00.009Z,19.60
2022-08-11T19:19:53.856Z,19.50
2022-08-11T19:21:46.221Z,19.40
2022-08-11T19:23:43.798Z,19.30
2022-08-11T19:25:36.692Z,19.30
2022-08-11T19:27:29.091Z,19.20
2022-08-11T19:30:09.079Z,19.10
2022-08-11T19:31:33.775Z,18.90
2022-08-11T19:34:02.982Z,18.80
2022-08-11T19:35:35.744Z,18.70
2022-08-11T19:37:29.183Z,18.50
2022-08-11T19:39:20.605Z,18.40
2022-08-11T19:41:12.680Z,18.40
2022-08-11T19:43:14.883Z,18.30
2022-08-11T19:45:18.193Z,18.30
2022-08-11T19:47:11.015Z,18.30
2022-08-11T19:49:03.230Z,18.20
2022-08-11T19:50:54.421Z,18.00
2022-08-11T19:52:48.455Z,18.00
2022-08-11T19:54:41.927Z,17.90
2022-08-11T19:56:34.361Z,17.90
2022-08-11T19:58:25.257Z,17.80
2022-08-11T20:00:18.437Z,17.80
2022-08-11T20:02:13.514Z,17.70
2022-08-11T20:04:05.167Z,17.70
2022-08-11T20:05:59.530Z,17.70
2022-08-11T20:07:51.972Z,17.60
2022-08-11T20:10:05.477Z,17.60
2022-08-11T20:11:57.428Z,17.50
2022-08-11T20:13:50.045Z,17.40
2022-08-11T20:15:43.600Z,17.30
2022-08-11T20:17:35.104Z,17.20
2022-08-11T20:19:55.426Z,17.10
2022-08-11T20:21:38.603Z,17.00
2022-08-11T20:23:30.807Z,16.90
2022-08-11T20:25:24.231Z,16.90
2022-08-11T20:27:24.103Z,16.80
2022-08-11T20:29:17.508Z,16.70
2022-08-11T20:31:11.050Z,16.70
2022-08-11T20:33:03.365Z,16.60
2022-08-11T20:34:56.320Z,16.50
2022-08-11T20:36:54.576Z,16.50
2022-08-11T20:38:49.832Z,16.40
2022-08-11T20:40:43.750Z,16.40
2022-08-11T20:42:37.142Z,16.40
2022-08-11T20:44:28.962Z,16.30
2022-08-11T20:46:22.950Z,16.30
2022-08-11T20:48:16.363Z,16.20
2022-08-11T20:50:09.371Z,16.10
2022-08-11T20:52:10.787Z,16.00
2022-08-11T20:54:05.497Z,16.00
2022-08-11T20:55:57.739Z,16.00
2022-08-11T20:57:59.363Z,15.90
2022-08-11T20:59:56.956Z,15.90
2022-08-11T21:01:52.265Z,15.70
2022-08-11T21:03:44.906Z,15.70
2022-08-11T21:06:10.492Z,15.60
2022-08-11T21:07:59.087Z,15.60
2022-08-11T21:09:58.598Z,15.50
2022-08-11T21:11:53.714Z,15.50
2022-08-11T21:13:47.686Z,15.50
2022-08-11T21:15:47.306Z,15.40
2022-08-11T21:18:06.469Z,15.40
2022-08-11T21:20:07.768Z,15.40
2022-08-11T21:22:03.788Z,15.40
2022-08-11T21:23:55.961Z,15.50
2022-08-11T21:25:49.054Z,15.50
2022-08-11T21:27:42.453Z,15.60
2022-08-11T21:29:33.207Z,15.50
2022-08-11T21:31:25.641Z,15.50
2022-08-11T21:33:18.883Z,15.50
2022-08-11T21:35:10.817Z,15.60
2022-08-11T21:37:03.255Z,15.70
2022-08-11T21:38:55.819Z,15.60
2022-08-11T21:40:47.624Z,15.70
2022-08-11T21:42:40.640Z,15.80
2022-08-11T21:44:32.772Z,15.70
2022-08-11T21:46:25.364Z,15.70
2022-08-11T21:48:19.939Z,15.60
2022-08-11T21:50:10.332Z,15.60
2022-08-11T21:52:00.738Z,15.50
2022-08-11T21:53:52.602Z,15.50
2022-08-11T21:55:43.888Z,15.50
2022-08-11T21:57:35.544Z,15.60
2022-08-11T21:59:50.193Z,15.60
2022-08-11T22:01:41.998Z,15.50
2022-08-11T22:03:50.059Z,15.40
2022-08-11T22:05:42.580Z,15.30
2022-08-11T22:07:34.377Z,15.20
2022-08-11T22:09:31.863Z,15.10
2022-08-11T22:11:32.269Z,15.00
2022-08-11T22:13:23.309Z,14.90
2022-08-11T22:15:14.148Z,14.80
2022-08-11T22:17:05.146Z,14.70
2022-08-11T22:18:57.260Z,14.60
2022-08-11T22:20:50.184Z,14.50
2022-08-11T22:22:52.502Z,14.50
2022-08-11T22:24:46.234Z,14.50
2022-08-11T22:26:37.449Z,14.40
2022-08-11T22:28:30.329Z,14.30
2022-08-11T22:30:21.060Z,14.30
2022-08-11T22:32:13.301Z,14.20
2022-08-11T22:34:05.420Z,14.20
2022-08-11T22:35:58.422Z,14.30
2022-08-11T22:37:50.297Z,14.30
2022-08-11T22:39:42.201Z,14.30
2022-08-11T22:41:33.309Z,14.30
2022-08-11T22:43:23.828Z,14.20
2022-08-11T22:45:14.610Z,14.20
2022-08-11T22:47:05.837Z,14.20
2022-08-11T22:48:57.773Z,14.20
2022-08-11T22:50:50.963Z,14.10
2022-08-11T22:52:43.282Z,14.00
2022-08-11T22:54:35.708Z,14.00
2022-08-11T22:56:32.937Z,13.90
2022-08-11T22:58:25.046Z,13.90
2022-08-11T23:00:16.686Z,13.80
2022-08-11T23:02:08.182Z,13.80
2022-08-11T23:03:59.933Z,13.70
2022-08-11T23:05:54.066Z,13.70
2022-08-11T23:07:51.838Z,13.80
2022-08-11T23:09:43.855Z,13.90
2022-08-11T23:12:07.443Z,13.90
2022-08-11T23:13:47.416Z,13.90
2022-08-11T23:15:39.223Z,13.90
2022-08-11T23:17:32.061Z,13.90
2022-08-11T23:20:00.267Z,13.80
2022-08-11T23:21:36.092Z,13.70
2022-08-11T23:23:27.864Z,13.70
2022-08-11T23:25:18.754Z,13.60
2022-08-11T23:27:09.357Z,13.50
2022-08-11T23:29:04.939Z,13.40
2022-08-11T23:30:58.586Z,13.40
2022-08-11T23:32:50.896Z,13.40
2022-08-11T23:35:36.969Z,13.40